Time;durP1;ratioP1;P1;durP2;ratioP2;P2;SDS_P1;SDS_P2;PMS_P1;PMS_P2;Temp;Humidity;BMP_temperature;BMP_pressure;BME280_temperature;BME280_humidity;BME280_pressure;Samples;Min_cycle;Max_cycle;Signal;HPM_P1;HPM_P2
2022/11/07 00:01:30;;;;;;;;;;;15.70;90.00;;;;;;4197239;28;19927;-65
2022/11/07 00:04:12;;;;;;;;;;;15.70;90.00;;;;;;4208600;28;20030;-65
2022/11/07 00:06:53;;;;;;;;;;;15.70;90.00;;;;;;4210076;28;19927;-65
2022/11/07 00:09:33;;;;;;;;;;;15.70;90.00;;;;;;4210044;28;19926;-65
2022/11/07 00:12:14;;;;;;;;;;;15.70;90.00;;;;;;4209726;28;19931;-65
2022/11/07 00:14:54;;;;;;;;;;;15.70;90.00;;;;;;4201788;28;19929;-65
2022/11/07 00:17:35;;;;;;;;;;;15.70;90.00;;;;;;4192849;28;19938;-65
2022/11/07 00:20:17;;;;;;;;;;;15.60;89.90;;;;;;4192730;28;19926;-65
2022/11/07 00:22:57;;;;;;;;;;;15.60;90.00;;;;;;4192807;28;20030;-65
2022/11/07 00:25:38;;;;;;;;;;;15.60;90.00;;;;;;4193015;28;19931;-61
2022/11/07 00:28:18;;;;;;;;;;;15.60;90.00;;;;;;4192748;28;19982;-62
2022/11/07 00:30:59;;;;;;;;;;;15.60;90.00;;;;;;4192964;28;19931;-61
2022/11/07 00:33:39;;;;;;;;;;;15.60;90.00;;;;;;4192702;28;19961;-62
2022/11/07 00:36:22;;;;;;;;;;;15.60;90.10;;;;;;4191886;28;20378;-61
2022/11/07 00:39:03;;;;;;;;;;;15.60;90.10;;;;;;4192869;28;20066;-61
2022/11/07 00:41:46;;;;;;;;;;;15.60;90.00;;;;;;4198424;28;19973;-65
2022/11/07 00:44:27;;;;;;;;;;;15.60;90.10;;;;;;4209499;28;19927;-65
2022/11/07 00:47:07;;;;;;;;;;;15.60;90.20;;;;;;4208939;28;19931;-65
2022/11/07 00:49:48;;;;;;;;;;;15.60;90.20;;;;;;4208799;28;19927;-65
2022/11/07 00:52:30;;;;;;;;;;;15.60;90.20;;;;;;4186041;28;20065;-65
2022/11/07 00:55:10;;;;;;;;;;;15.60;90.10;;;;;;4192489;28;19931;-65
2022/11/07 00:57:51;;;;;;;;;;;15.60;90.10;;;;;;4177840;28;19990;-65
2022/11/07 01:00:31;;;;;;;;;;;15.60;90.20;;;;;;4192417;28;19931;-65
2022/11/07 01:06:10;;;;;;;;;;;15.60;90.20;;;;;;4192064;28;19927;-66
2022/11/07 01:08:53;;;;;;;;;;;15.60;90.20;;;;;;4193051;28;20022;-65
2022/11/07 01:11:35;;;;;;;;;;;15.60;90.20;;;;;;4175837;28;19943;-65
2022/11/07 01:14:17;;;;;;;;;;;15.60;90.20;;;;;;4176188;28;19974;-65
2022/11/07 01:16:57;;;;;;;;;;;15.60;90.30;;;;;;4194643;28;19927;-62
2022/11/07 01:19:38;;;;;;;;;;;15.60;90.30;;;;;;4192300;28;20024;-62
2022/11/07 01:22:18;;;;;;;;;;;15.50;90.20;;;;;;4201493;28;19946;-62
2022/11/07 01:25:00;;;;;;;;;;;15.50;90.20;;;;;;4203167;28;19977;-62
2022/11/07 01:27:41;;;;;;;;;;;15.60;90.30;;;;;;4208586;28;20061;-62
2022/11/07 01:30:21;;;;;;;;;;;15.50;90.30;;;;;;4208912;28;20049;-62
2022/11/07 01:33:02;;;;;;;;;;;15.50;90.30;;;;;;4208791;28;19931;-65
2022/11/07 01:35:42;;;;;;;;;;;15.50;90.20;;;;;;4202756;28;20043;-64
2022/11/07 01:38:23;;;;;;;;;;;15.50;90.30;;;;;;4192668;28;20029;-65
2022/11/07 01:41:24;;;;;;;;;;;15.50;90.30;;;;;;4193262;28;19930;-65
2022/11/07 01:44:19;;;;;;;;;;;15.50;90.30;;;;;;4191739;28;19931;-65
2022/11/07 01:47:01;;;;;;;;;;;15.50;90.70;;;;;;4192846;28;19955;-64
2022/11/07 01:49:42;;;;;;;;;;;15.50;90.30;;;;;;4195356;28;19927;-64
2022/11/07 01:52:25;;;;;;;;;;;15.50;90.30;;;;;;4203550;28;19930;-64
2022/11/07 01:55:08;;;;;;;;;;;15.50;90.30;;;;;;4195779;28;19930;-61
2022/11/07 01:57:52;;;;;;;;;;;15.50;90.30;;;;;;4196450;28;19927;-62
2022/11/07 02:00:34;;;;;;;;;;;15.50;90.40;;;;;;4194748;28;19931;-62
2022/11/07 02:03:17;;;;;;;;;;;15.50;90.40;;;;;;4197056;28;19930;-62
2022/11/07 02:06:00;;;;;;;;;;;15.50;90.40;;;;;;4211662;28;19926;-62
2022/11/07 02:08:42;;;;;;;;;;;15.50;90.30;;;;;;4211193;28;20028;-62
2022/11/07 02:11:23;;;;;;;;;;;15.50;90.30;;;;;;4211521;28;19943;-62
2022/11/07 02:14:05;;;;;;;;;;;15.50;90.40;;;;;;4209698;28;19935;-62
2022/11/07 02:16:46;;;;;;;;;;;15.50;90.40;;;;;;4198493;28;19974;-62
2022/11/07 02:19:32;;;;;;;;;;;15.50;90.40;;;;;;4206486;28;19985;-62
2022/11/07 02:22:17;;;;;;;;;;;15.50;90.40;;;;;;4211251;28;20012;-62
2022/11/07 02:25:00;;;;;;;;;;;15.50;90.40;;;;;;4198191;28;19931;-62
2022/11/07 02:27:42;;;;;;;;;;;15.40;90.50;;;;;;4210635;28;19939;-62
2022/11/07 02:30:24;;;;;;;;;;;15.50;90.50;;;;;;4199275;28;19928;-62
2022/11/07 02:33:16;;;;;;;;;;;15.40;90.50;;;;;;4194536;28;19947;-62
2022/11/07 02:35:56;;;;;;;;;;;15.50;90.50;;;;;;4194536;28;19935;-63
2022/11/07 02:38:37;;;;;;;;;;;15.50;90.90;;;;;;4194535;28;19927;-62
2022/11/07 02:41:21;;;;;;;;;;;15.50;90.50;;;;;;4177965;28;19963;-62
2022/11/07 02:44:04;;;;;;;;;;;15.50;90.50;;;;;;4209091;28;20274;-62
2022/11/07 02:46:45;;;;;;;;;;;15.50;90.50;;;;;;4209367;28;20009;-65
2022/11/07 02:49:25;;;;;;;;;;;15.40;90.50;;;;;;4211022;28;19985;-66
2022/11/07 02:52:06;;;;;;;;;;;15.50;90.50;;;;;;4211431;28;19927;-66
2022/11/07 02:54:47;;;;;;;;;;;15.50;90.50;;;;;;4197882;28;20066;-66
2022/11/07 02:57:28;;;;;;;;;;;15.40;90.50;;;;;;4192303;28;20005;-65
2022/11/07 03:00:10;;;;;;;;;;;15.40;90.50;;;;;;4193873;28;20590;-62
2022/11/07 03:02:51;;;;;;;;;;;15.50;90.70;;;;;;4177714;28;20494;-62
2022/11/07 03:05:32;;;;;;;;;;;15.40;90.60;;;;;;4176380;28;19928;-62
2022/11/07 03:08:13;;;;;;;;;;;15.40;90.60;;;;;;4177444;28;19931;-62
2022/11/07 03:10:53;;;;;;;;;;;15.40;91.00;;;;;;4177041;28;19928;-62
2022/11/07 03:13:35;;;;;;;;;;;15.40;90.60;;;;;;4192845;28;19931;-62
2022/11/07 03:16:17;;;;;;;;;;;15.40;90.60;;;;;;4193777;28;20038;-62
2022/11/07 03:18:58;;;;;;;;;;;15.40;90.60;;;;;;4199348;28;19927;-62
2022/11/07 03:21:38;;;;;;;;;;;15.40;90.70;;;;;;4210536;28;20038;-61
2022/11/07 03:24:19;;;;;;;;;;;15.40;90.70;;;;;;4200867;28;19927;-62
2022/11/07 03:26:59;;;;;;;;;;;15.50;90.70;;;;;;4193190;28;20651;-63
2022/11/07 03:29:41;;;;;;;;;;;15.40;90.70;;;;;;4195636;28;19932;-62
2022/11/07 03:32:22;;;;;;;;;;;15.40;90.70;;;;;;4193151;28;19969;-62
2022/11/07 03:35:03;;;;;;;;;;;15.40;90.70;;;;;;4193552;28;20436;-62
2022/11/07 03:37:45;;;;;;;;;;;15.40;90.70;;;;;;4193635;28;19927;-62
2022/11/07 03:40:25;;;;;;;;;;;15.40;90.70;;;;;;4193372;28;20058;-62
2022/11/07 03:43:06;;;;;;;;;;;15.40;90.70;;;;;;4193662;28;19931;-62
2022/11/07 03:45:48;;;;;;;;;;;15.40;90.80;;;;;;4195518;28;19931;-62
2022/11/07 03:48:28;;;;;;;;;;;15.40;90.80;;;;;;4193293;28;19927;-62
2022/11/07 03:51:10;;;;;;;;;;;15.40;90.80;;;;;;4192374;28;20386;-62
2022/11/07 03:53:51;;;;;;;;;;;15.40;90.80;;;;;;4193308;28;19977;-62
2022/11/07 03:56:32;;;;;;;;;;;15.40;90.80;;;;;;4176558;28;19932;-62
2022/11/07 03:59:12;;;;;;;;;;;15.40;90.80;;;;;;4176952;28;19943;-66
2022/11/07 04:01:54;;;;;;;;;;;15.40;91.20;;;;;;4193547;28;20282;-66
2022/11/07 04:04:35;;;;;;;;;;;15.40;90.80;;;;;;4181161;28;20019;-66
2022/11/07 04:07:16;;;;;;;;;;;15.40;90.80;;;;;;4193137;28;19927;-66
2022/11/07 04:09:57;;;;;;;;;;;15.40;90.80;;;;;;4192995;28;19935;-66
2022/11/07 04:18:37;;;;;;;;;;;15.40;90.80;;;;;;4208223;28;19927;-62
2022/11/07 04:21:17;;;;;;;;;;;15.40;90.80;;;;;;4178598;28;19927;-63
2022/11/07 04:23:58;;;;;;;;;;;15.30;90.80;;;;;;4192212;28;19944;-63
2022/11/07 04:29:37;;;;;;;;;;;15.40;90.80;;;;;;4209150;28;19930;-62
2022/11/07 04:32:17;;;;;;;;;;;15.30;90.80;;;;;;4200134;28;19928;-62
2022/11/07 04:34:59;;;;;;;;;;;15.40;91.20;;;;;;4192450;28;19927;-62
2022/11/07 04:37:40;;;;;;;;;;;15.30;90.90;;;;;;4206633;28;19931;-63
2022/11/07 04:40:21;;;;;;;;;;;15.40;90.90;;;;;;4176092;28;20398;-62
2022/11/07 04:43:07;;;;;;;;;;;15.30;90.90;;;;;;4176102;28;20370;-66
2022/11/07 04:45:48;;;;;;;;;;;15.30;90.90;;;;;;4175660;28;20013;-66
2022/11/07 04:48:28;;;;;;;;;;;15.30;90.90;;;;;;4175797;28;19932;-66
2022/11/07 04:51:13;;;;;;;;;;;15.30;90.90;;;;;;4176053;28;19967;-66
2022/11/07 04:53:54;;;;;;;;;;;15.30;90.90;;;;;;4201847;28;19976;-66
2022/11/07 04:56:34;;;;;;;;;;;15.30;90.90;;;;;;4176165;28;20382;-66
2022/11/07 04:59:15;;;;;;;;;;;15.40;91.10;;;;;;4175987;28;19931;-66
2022/11/07 05:01:55;;;;;;;;;;;15.40;91.00;;;;;;4199004;27;19927;-66
2022/11/07 05:04:37;;;;;;;;;;;15.50;90.90;;;;;;4209315;27;20016;-66
2022/11/07 05:07:19;;;;;;;;;;;15.50;90.80;;;;;;4198106;28;19931;-66
2022/11/07 05:10:00;;;;;;;;;;;15.60;90.80;;;;;;4193589;27;20284;-66
2022/11/07 05:12:40;;;;;;;;;;;15.60;90.70;;;;;;4192639;28;20069;-66
2022/11/07 05:15:21;;;;;;;;;;;15.60;90.60;;;;;;4192472;28;19931;-66
2022/11/07 05:18:01;;;;;;;;;;;15.60;90.60;;;;;;4175839;28;19927;-66
2022/11/07 05:20:42;;;;;;;;;;;15.60;90.60;;;;;;4181597;28;19973;-66
2022/11/07 05:23:26;;;;;;;;;;;15.60;90.50;;;;;;4196093;28;19931;-66
2022/11/07 05:26:07;;;;;;;;;;;15.60;90.50;;;;;;4206701;27;19927;-66
2022/11/07 05:28:47;;;;;;;;;;;15.60;90.50;;;;;;4195778;27;19992;-66
2022/11/07 05:31:27;;;;;;;;;;;15.60;90.50;;;;;;4195500;28;20347;-66
2022/11/07 05:34:08;;;;;;;;;;;15.60;90.70;;;;;;4203107;27;20390;-66
2022/11/07 05:36:53;;;;;;;;;;;15.60;90.60;;;;;;4212069;27;19927;-66
2022/11/07 05:39:36;;;;;;;;;;;15.60;90.60;;;;;;4212062;27;20286;-66
2022/11/07 05:42:16;;;;;;;;;;;15.60;90.60;;;;;;4207672;27;19986;-65
2022/11/07 05:44:57;;;;;;;;;;;15.60;90.60;;;;;;4194796;28;20013;-66
2022/11/07 05:47:37;;;;;;;;;;;15.50;90.50;;;;;;4184054;28;20417;-65
2022/11/07 05:50:18;;;;;;;;;;;15.50;90.50;;;;;;4195014;28;19932;-65
2022/11/07 05:52:58;;;;;;;;;;;15.50;90.60;;;;;;4195328;28;19969;-65
2022/11/07 05:55:41;;;;;;;;;;;15.50;90.60;;;;;;4196581;27;19932;-65
2022/11/07 05:58:22;;;;;;;;;;;15.50;90.70;;;;;;4195003;28;20416;-65
2022/11/07 06:01:04;;;;;;;;;;;15.50;90.70;;;;;;4185992;28;19995;-65
2022/11/07 06:03:44;;;;;;;;;;;15.40;90.70;;;;;;4195104;28;20643;-66
2022/11/07 06:06:25;;;;;;;;;;;15.40;90.70;;;;;;4193950;28;19927;-65
2022/11/07 06:09:06;;;;;;;;;;;15.40;90.70;;;;;;4185284;28;20494;-65
2022/11/07 06:11:48;;;;;;;;;;;15.40;90.70;;;;;;4178709;28;19927;-65
2022/11/07 06:14:28;;;;;;;;;;;15.40;90.80;;;;;;4182568;28;19927;-65
2022/11/07 06:17:09;;;;;;;;;;;15.30;90.80;;;;;;4194980;28;20009;-66
2022/11/07 06:19:49;;;;;;;;;;;15.40;90.90;;;;;;4211704;28;19946;-66
2022/11/07 06:22:30;;;;;;;;;;;15.30;90.90;;;;;;4211124;28;20385;-66
2022/11/07 06:25:10;;;;;;;;;;;15.30;90.90;;;;;;4197045;28;19947;-66
2022/11/07 06:27:52;;;;;;;;;;;15.30;91.00;;;;;;4207922;28;19927;-66
2022/11/07 06:30:33;;;;;;;;;;;15.30;91.10;;;;;;4210819;28;19927;-66
2022/11/07 06:33:14;;;;;;;;;;;15.40;91.10;;;;;;4210607;28;20404;-65
2022/11/07 06:35:56;;;;;;;;;;;15.50;91.00;;;;;;4208218;28;20389;-65
2022/11/07 06:38:37;;;;;;;;;;;15.60;90.90;;;;;;4186562;28;20386;-65
2022/11/07 06:41:17;;;;;;;;;;;15.60;90.80;;;;;;4194640;28;20009;-65
2022/11/07 06:43:59;;;;;;;;;;;15.60;90.70;;;;;;4210877;28;19931;-65
2022/11/07 06:46:40;;;;;;;;;;;15.70;90.60;;;;;;4208069;28;19931;-65
2022/11/07 06:49:21;;;;;;;;;;;15.70;90.50;;;;;;4200145;28;19928;-65
2022/11/07 06:52:01;;;;;;;;;;;15.70;90.50;;;;;;4178138;28;19932;-65
2022/11/07 06:54:42;;;;;;;;;;;15.70;90.40;;;;;;4190813;28;20338;-66
2022/11/07 06:57:23;;;;;;;;;;;15.70;90.40;;;;;;4192139;28;19931;-65
2022/11/07 07:00:06;;;;;;;;;;;15.70;90.40;;;;;;4192394;28;20058;-65
2022/11/07 07:02:46;;;;;;;;;;;15.60;90.30;;;;;;4197322;28;19972;-64
2022/11/07 07:05:42;;;;;;;;;;;15.60;90.30;;;;;;4195804;28;19943;-65
2022/11/07 07:08:24;;;;;;;;;;;15.60;90.70;;;;;;4184466;28;20008;-64
2022/11/07 07:11:05;;;;;;;;;;;15.60;90.30;;;;;;4186458;28;19973;-64
2022/11/07 07:13:45;;;;;;;;;;;15.60;90.30;;;;;;4193539;28;19927;-64
2022/11/07 07:16:28;;;;;;;;;;;15.60;90.30;;;;;;4191643;28;19931;-64
2022/11/07 07:19:08;;;;;;;;;;;15.60;90.30;;;;;;4193647;28;19927;-64
2022/11/07 07:21:49;;;;;;;;;;;15.50;90.30;;;;;;4193489;28;20073;-64
2022/11/07 07:24:29;;;;;;;;;;;15.50;90.30;;;;;;4193292;28;19931;-64
2022/11/07 07:27:10;;;;;;;;;;;15.50;90.30;;;;;;4207411;27;19996;-63
2022/11/07 07:29:52;;;;;;;;;;;15.50;90.30;;;;;;4200848;27;20050;-64
2022/11/07 07:32:36;;;;;;;;;;;15.50;90.40;;;;;;4210034;27;20037;-64
2022/11/07 07:35:16;;;;;;;;;;;15.40;90.40;;;;;;4209901;27;20423;-64
2022/11/07 07:37:57;;;;;;;;;;;15.40;90.40;;;;;;4179065;28;19947;-65
2022/11/07 07:40:37;;;;;;;;;;;15.40;90.40;;;;;;4175657;28;19927;-65
2022/11/07 07:43:18;;;;;;;;;;;15.40;90.50;;;;;;4176203;28;19963;-66
2022/11/07 07:45:59;;;;;;;;;;;15.40;90.50;;;;;;4159614;28;19928;-64
2022/11/07 07:48:41;;;;;;;;;;;15.40;90.50;;;;;;4159920;28;19931;-64
2022/11/07 07:51:22;;;;;;;;;;;15.30;90.90;;;;;;4174985;28;19975;-61
2022/11/07 07:54:02;;;;;;;;;;;15.30;90.60;;;;;;4182061;28;19927;-65
2022/11/07 07:56:43;;;;;;;;;;;15.40;90.90;;;;;;4192883;28;19934;-64
2022/11/07 07:59:23;;;;;;;;;;;15.30;91.50;;;;;;4192575;28;19927;-64
2022/11/07 08:02:04;;;;;;;;;;;15.40;91.20;;;;;;4181638;28;19932;-64
2022/11/07 08:04:46;;;;;;;;;;;15.40;91.20;;;;;;4203132;28;19930;-64
2022/11/07 08:07:27;;;;;;;;;;;15.40;91.20;;;;;;4195073;28;20025;-64
2022/11/07 08:10:08;;;;;;;;;;;15.30;91.10;;;;;;4192831;28;19986;-65
2022/11/07 08:13:09;;;;;;;;;;;15.30;91.20;;;;;;4192729;28;19931;-64
2022/11/07 08:15:50;;;;;;;;;;;15.40;91.30;;;;;;4192581;28;19942;-64
2022/11/07 08:18:31;;;;;;;;;;;15.30;91.30;;;;;;4192330;28;19927;-65
2022/11/07 08:21:13;;;;;;;;;;;15.30;91.30;;;;;;4192757;28;20057;-65
2022/11/07 08:23:53;;;;;;;;;;;15.30;91.30;;;;;;4192017;28;19931;-63
2022/11/07 08:26:36;;;;;;;;;;;15.30;91.40;;;;;;4191197;28;20015;-63
2022/11/07 08:29:16;;;;;;;;;;;15.30;91.40;;;;;;4192512;28;20420;-63
2022/11/07 08:31:57;;;;;;;;;;;15.30;91.90;;;;;;4192688;28;19969;-63
2022/11/07 08:34:38;;;;;;;;;;;15.30;91.50;;;;;;4192452;28;19931;-63
2022/11/07 08:37:20;;;;;;;;;;;15.30;91.50;;;;;;4193050;28;19942;-63
2022/11/07 08:40:01;;;;;;;;;;;15.30;91.60;;;;;;4176276;28;20021;-60
2022/11/07 08:42:42;;;;;;;;;;;15.30;91.60;;;;;;4159321;28;19928;-61
2022/11/07 08:45:23;;;;;;;;;;;15.30;91.60;;;;;;4169872;28;19928;-61
2022/11/07 08:48:04;;;;;;;;;;;15.30;92.10;;;;;;4192650;28;20409;-61
2022/11/07 08:50:45;;;;;;;;;;;15.30;91.70;;;;;;4192709;28;19928;-61
2022/11/07 08:53:27;;;;;;;;;;;15.30;91.70;;;;;;4162806;28;19987;-60
2022/11/07 08:56:08;;;;;;;;;;;15.30;91.70;;;;;;4191613;28;20030;-61
2022/11/07 08:58:49;;;;;;;;;;;15.30;91.80;;;;;;4176099;28;20272;-61
2022/11/07 09:01:29;;;;;;;;;;;15.30;91.80;;;;;;4159278;28;20059;-60
2022/11/07 09:04:10;;;;;;;;;;;15.20;91.80;;;;;;4178911;28;19927;-61
2022/11/07 09:06:51;;;;;;;;;;;15.20;91.80;;;;;;4187106;27;20486;-61
2022/11/07 09:09:34;;;;;;;;;;;15.20;91.90;;;;;;4184841;28;19928;-61
2022/11/07 09:12:14;;;;;;;;;;;15.20;91.90;;;;;;4192238;28;19980;-62
2022/11/07 09:14:55;;;;;;;;;;;15.20;91.90;;;;;;4205632;27;19938;-61
2022/11/07 09:17:35;;;;;;;;;;;15.20;91.90;;;;;;4192582;28;19927;-63
2022/11/07 09:20:16;;;;;;;;;;;15.20;91.90;;;;;;4191578;28;20042;-63
2022/11/07 09:22:57;;;;;;;;;;;15.20;91.90;;;;;;4175517;28;20057;-63
2022/11/07 09:25:39;;;;;;;;;;;15.20;92.00;;;;;;4175317;28;20394;-62
2022/11/07 09:28:20;;;;;;;;;;;15.20;92.00;;;;;;4175050;28;20394;-63
2022/11/07 09:31:01;;;;;;;;;;;15.20;92.00;;;;;;4181754;28;19928;-62
2022/11/07 09:33:42;;;;;;;;;;;15.20;92.40;;;;;;4181693;28;19927;-62
2022/11/07 09:36:23;;;;;;;;;;;15.20;92.00;;;;;;4208872;27;19927;-63
2022/11/07 09:39:03;;;;;;;;;;;15.20;92.00;;;;;;4209224;27;19931;-62
2022/11/07 09:41:51;;;;;;;;;;;15.20;92.40;;;;;;4204812;27;19931;-62
2022/11/07 09:44:49;;;;;;;;;;;15.20;92.10;;;;;;4192268;28;20286;-62
2022/11/07 09:47:35;;;;;;;;;;;15.20;92.50;;;;;;4175235;28;19931;-62
2022/11/07 09:50:18;;;;;;;;;;;15.20;92.10;;;;;;4176246;28;19928;-62
2022/11/07 09:53:01;;;;;;;;;;;15.20;92.10;;;;;;4193288;27;19927;-62
2022/11/07 09:55:46;;;;;;;;;;;15.20;92.10;;;;;;4158837;28;20399;-62
2022/11/07 09:58:29;;;;;;;;;;;15.20;92.10;;;;;;4188091;28;19998;-62
2022/11/07 10:01:12;;;;;;;;;;;15.20;92.10;;;;;;4196019;27;19927;-62
2022/11/07 10:03:53;;;;;;;;;;;15.20;92.10;;;;;;4180215;28;19927;-63
2022/11/07 10:06:55;;;;;;;;;;;15.30;92.20;;;;;;4191485;28;20013;-62
2022/11/07 10:09:41;;;;;;;;;;;15.20;92.50;;;;;;4195075;28;20054;-61
2022/11/07 10:12:37;;;;;;;;;;;15.30;92.20;;;;;;4195058;28;19928;-62
2022/11/07 10:15:27;;;;;;;;;;;15.30;92.20;;;;;;4191467;28;19931;-61
2022/11/07 10:18:12;;;;;;;;;;;15.30;92.20;;;;;;4194989;28;19928;-61
2022/11/07 10:20:55;;;;;;;;;;;15.30;92.60;;;;;;4194968;28;20373;-63
2022/11/07 10:24:04;;;;;;;;;;;15.30;92.20;;;;;;4199314;27;19973;-63
2022/11/07 10:26:45;;;;;;;;;;;15.30;92.20;;;;;;4210809;27;19927;-64
2022/11/07 10:29:29;;;;;;;;;;;15.30;92.20;;;;;;4206902;27;19973;-64
2022/11/07 10:32:16;;;;;;;;;;;15.30;92.30;;;;;;4193876;28;19931;-63
2022/11/07 10:35:14;;;;;;;;;;;15.30;92.60;;;;;;4176609;28;20458;-63
2022/11/07 10:37:55;;;;;;;;;;;15.30;92.30;;;;;;4177750;28;19935;-63
2022/11/07 10:40:38;;;;;;;;;;;15.30;92.70;;;;;;4194364;28;19931;-63
2022/11/07 10:43:24;;;;;;;;;;;15.30;92.30;;;;;;4177724;28;19935;-63
2022/11/07 10:46:10;;;;;;;;;;;15.30;92.30;;;;;;4186373;28;19932;-63
2022/11/07 10:48:53;;;;;;;;;;;15.30;92.30;;;;;;4184373;28;20378;-63
2022/11/07 10:51:35;;;;;;;;;;;15.30;92.40;;;;;;4194501;28;19958;-64
2022/11/07 10:54:19;;;;;;;;;;;15.30;92.40;;;;;;4194091;28;19927;-63
2022/11/07 10:57:03;;;;;;;;;;;15.30;92.40;;;;;;4176598;28;19969;-63
2022/11/07 10:59:46;;;;;;;;;;;15.30;92.50;;;;;;4177397;28;19928;-63
2022/11/07 11:02:28;;;;;;;;;;;15.30;92.50;;;;;;4177923;28;20051;-63
2022/11/07 11:05:21;;;;;;;;;;;15.30;92.50;;;;;;4177755;28;20568;-64
2022/11/07 11:08:08;;;;;;;;;;;15.30;92.50;;;;;;4177246;28;20267;-64
2022/11/07 11:10:49;;;;;;;;;;;15.30;92.60;;;;;;4208109;28;20354;-63
2022/11/07 11:13:31;;;;;;;;;;;15.30;92.60;;;;;;4210659;28;19926;-63
2022/11/07 11:16:21;;;;;;;;;;;15.30;92.50;;;;;;4210820;28;20004;-64
2022/11/07 11:19:02;;;;;;;;;;;15.30;92.60;;;;;;4204741;28;20008;-63
2022/11/07 11:21:44;;;;;;;;;;;15.30;92.60;;;;;;4177317;28;19993;-64
2022/11/07 11:24:30;;;;;;;;;;;15.30;92.60;;;;;;4187080;28;19993;-64
2022/11/07 11:27:12;;;;;;;;;;;15.30;92.60;;;;;;4192274;28;19928;-63
2022/11/07 11:29:55;;;;;;;;;;;15.40;92.60;;;;;;4193693;28;20089;-64
2022/11/07 11:32:38;;;;;;;;;;;15.30;92.60;;;;;;4193611;28;19928;-64
2022/11/07 11:35:28;;;;;;;;;;;15.30;92.60;;;;;;4205959;28;19957;-64
2022/11/07 11:38:11;;;;;;;;;;;15.30;92.60;;;;;;4209947;28;19981;-64
2022/11/07 11:42:42;;;;;;;0.20;0.20;;;15.40;92.50;;;;;;4256826;27;20119;-64
2022/11/07 11:45:33;;;;;;;2.75;1.80;;;15.40;93.30;;;;;;4256771;27;20045;-63
2022/11/07 11:48:23;;;;;;;0.00;0.00;;;15.40;93.20;;;;;;4245773;27;20696;-64
2022/11/07 11:51:07;;;;;;;3.20;1.27;;;15.40;93.10;;;;;;4255799;27;20069;-63
2022/11/07 11:53:48;;;;;;;0.63;0.63;;;15.40;93.00;;;;;;4255002;27;20058;-63
2022/11/07 11:56:42;;;;;;;2.30;2.10;;;15.40;93.00;;;;;;4256587;27;20049;-64
2022/11/07 11:59:42;;;;;;;0.28;0.28;;;15.40;92.90;;;;;;4256601;27;20050;-63
2022/11/07 12:02:39;;;;;;;0.10;0.10;;;15.40;93.30;;;;;;4243059;27;20058;-62
2022/11/07 12:05:34;;;;;;;0.70;0.70;;;15.40;93.30;;;;;;4243929;27;20057;-64
2022/11/07 12:08:26;;;;;;;0.10;0.10;;;15.40;92.90;;;;;;4239384;28;20071;-64
2022/11/07 12:11:18;;;;;;;0.20;0.20;;;15.40;92.90;;;;;;4239796;27;20057;-64
2022/11/07 12:14:11;;;;;;;0.55;0.55;;;15.40;92.90;;;;;;4239315;27;20089;-64
2022/11/07 12:16:58;;;;;;;0.90;0.47;;;15.40;92.90;;;;;;4256109;27;20756;-64
2022/11/07 12:19:47;;;;;;;0.38;0.38;;;15.40;92.90;;;;;;4239639;27;20058;-64
2022/11/07 12:22:40;;;;;;;0.10;0.10;;;15.40;92.90;;;;;;4239882;27;20050;-64
2022/11/07 12:25:27;;;;;;;1.02;1.02;;;15.40;92.90;;;;;;4239525;27;20491;-64
2022/11/07 12:28:25;;;;;;;0.47;0.47;;;15.40;92.80;;;;;;4256408;27;20570;-63
2022/11/07 12:31:20;;;;;;;0.45;0.45;;;15.40;92.90;;;;;;4255759;27;20119;-63
2022/11/07 12:34:19;;;;;;;0.43;0.43;;;15.40;92.80;;;;;;4239091;28;20054;-64
2022/11/07 12:37:18;;;;;;;0.00;0.00;;;15.40;92.80;;;;;;4255800;27;20046;-63
2022/11/07 12:40:14;;;;;;;0.25;0.25;;;15.40;93.20;;;;;;4254761;27;20042;-63
2022/11/07 12:43:14;;;;;;;0.43;0.43;;;15.50;92.90;;;;;;4255339;27;20042;-63
2022/11/07 12:46:04;;;;;;;0.10;0.10;;;15.50;92.90;;;;;;4238639;28;20539;-63
2022/11/07 12:49:04;;;;;;;0.77;0.77;;;15.50;92.80;;;;;;4227753;28;20531;-63
2022/11/07 12:51:55;;;;;;;7.22;2.85;;;15.50;92.80;;;;;;4238506;28;20351;-63
2022/11/07 12:54:45;;;;;;;0.75;0.75;;;15.50;92.80;;;;;;4227060;28;20096;-64
2022/11/07 12:57:29;;;;;;;0.40;0.40;;;15.50;92.80;;;;;;4227213;28;20050;-63
2022/11/07 13:00:18;;;;;;;0.45;0.43;;;15.50;92.80;;;;;;4227315;28;20085;-62
2022/11/07 13:03:34;;;;;;;0.03;0.03;;;15.50;92.80;;;;;;4243466;27;20401;-64
2022/11/07 13:06:21;;;;;;;0.05;0.05;;;15.50;92.80;;;;;;4231301;27;20050;-63
2022/11/07 13:09:14;;;;;;;0.03;0.03;;;15.50;92.80;;;;;;4243944;27;20050;-62
2022/11/07 13:12:04;;;;;;;0.10;0.10;;;15.50;92.80;;;;;;4226689;28;20046;-63
2022/11/07 13:14:45;;;;;;;0.38;0.08;;;15.50;92.80;;;;;;4243662;27;20062;-65
2022/11/07 13:17:29;;;;;;;0.00;0.00;;;15.50;92.80;;;;;;4243426;27;20054;-64
2022/11/07 13:20:27;;;;;;;0.00;0.00;;;15.50;92.80;;;;;;4243612;27;20053;-64
2022/11/07 13:23:15;;;;;;;0.77;0.77;;;15.50;92.80;;;;;;4243501;27;20119;-64
2022/11/07 13:26:06;;;;;;;1.10;1.00;;;15.50;92.80;;;;;;4243640;27;20409;-63
2022/11/07 13:29:23;;;;;;;0.05;0.05;;;15.50;92.80;;;;;;4243570;27;20054;-62
2022/11/07 13:32:10;;;;;;;0.00;0.00;;;15.50;92.80;;;;;;4230355;27;20061;-64
2022/11/07 13:34:59;;;;;;;0.00;0.00;;;15.50;92.80;;;;;;4243546;27;20127;-63
2022/11/07 13:37:46;;;;;;;1.92;0.73;;;15.50;92.80;;;;;;4226962;28;20508;-63
2022/11/07 13:40:30;;;;;;;0.20;0.20;;;15.50;92.80;;;;;;4227360;27;20604;-63
2022/11/07 13:43:15;;;;;;;0.00;0.00;;;15.50;93.20;;;;;;4243461;27;20058;-63
2022/11/07 13:45:58;;;;;;;0.00;0.00;;;15.50;92.80;;;;;;4243345;27;20090;-63
2022/11/07 13:48:49;;;;;;;1.98;0.70;;;15.50;92.80;;;;;;4226944;27;20062;-63
2022/11/07 13:51:33;;;;;;;0.60;0.60;;;15.50;92.80;;;;;;4226942;27;20249;-63
2022/11/07 13:54:19;;;;;;;0.40;0.40;;;15.50;92.80;;;;;;4226101;27;20054;-64
2022/11/07 13:57:06;;;;;;;0.00;0.00;;;15.50;92.80;;;;;;4250372;27;20053;-64
2022/11/07 13:59:54;;;;;;;0.00;0.00;;;15.50;92.80;;;;;;4213582;28;20043;-64
2022/11/07 14:02:35;;;;;;;0.30;0.30;;;15.50;92.80;;;;;;4226071;27;20058;-64
2022/11/07 14:05:17;;;;;;;0.10;0.10;;;15.50;93.20;;;;;;4225867;27;20057;-64
2022/11/07 14:08:02;;;;;;;0.10;0.10;;;15.50;92.80;;;;;;4224727;28;20703;-64
2022/11/07 14:10:46;;;;;;;0.43;0.43;;;15.50;92.90;;;;;;4226026;28;20501;-63
2022/11/07 14:13:30;;;;;;;0.35;0.35;;;15.50;93.20;;;;;;4234281;27;20050;-63
2022/11/07 14:16:20;;;;;;;0.00;0.00;;;15.50;92.90;;;;;;4233752;27;20050;-63
2022/11/07 14:19:05;;;;;;;0.00;0.00;;;15.50;92.90;;;;;;4226409;28;20050;-63
2022/11/07 14:21:46;;;;;;;0.00;0.00;;;15.50;92.90;;;;;;4226203;28;20063;-63
2022/11/07 14:24:28;;;;;;;;;;;15.50;92.90;;;;;;4230705;27;20042;-63
2022/11/07 14:27:14;;;;;;;0.10;0.10;;;15.50;92.90;;;;;;4230528;27;19926;-63
2022/11/07 14:29:56;;;;;;;0.00;0.00;;;15.50;92.90;;;;;;4243084;27;20058;-62
2022/11/07 14:32:39;;;;;;;0.30;0.30;;;15.50;92.90;;;;;;4237368;27;20042;-63
2022/11/07 14:35:23;;;;;;;6.75;2.88;;;15.50;92.90;;;;;;4223094;28;20153;-64
2022/11/07 14:38:09;;;;;;;0.00;0.00;;;15.50;92.90;;;;;;4225661;27;20053;-63
2022/11/07 14:40:51;;;;;;;0.00;0.00;;;15.50;92.90;;;;;;4226001;27;20498;-63
2022/11/07 14:43:34;;;;;;;;;;;15.50;92.90;;;;;;4222480;27;20074;-64
2022/11/07 14:46:19;;;;;;;0.00;0.00;;;15.50;92.90;;;;;;4242021;27;19929;-64
2022/11/07 14:49:01;;;;;;;0.32;0.32;;;15.50;92.90;;;;;;4242833;27;20050;-64
2022/11/07 14:51:43;;;;;;;0.52;0.52;;;15.50;92.90;;;;;;4242902;27;20058;-63
2022/11/07 14:54:29;;;;;;;0.03;0.03;;;15.50;92.90;;;;;;4241148;27;20050;-64
2022/11/07 14:57:12;;;;;;;0.00;0.00;;;15.50;92.90;;;;;;4240732;27;20511;-64
2022/11/07 14:59:54;;;;;;;0.00;0.00;;;15.50;92.90;;;;;;4241242;27;20058;-64
2022/11/07 15:02:34;;;;;;;0.10;0.10;;;15.50;93.20;;;;;;4242551;27;20558;-64
2022/11/07 15:05:26;;;;;;;0.00;0.00;;;15.50;92.90;;;;;;4242339;27;20046;-64
2022/11/07 15:08:24;;;;;;;0.22;0.22;;;15.50;92.90;;;;;;4225209;28;20173;-63
2022/11/07 15:11:22;;;;;;;0.00;0.00;;;15.50;92.90;;;;;;4225064;28;20050;-63
2022/11/07 15:14:05;;;;;;;0.10;0.10;;;15.50;92.90;;;;;;4226311;27;20058;-63
2022/11/07 15:16:48;;;;;;;0.30;0.30;;;15.50;92.90;;;;;;4241829;27;20058;-64
2022/11/07 15:19:31;;;;;;;0.00;0.00;;;15.50;92.90;;;;;;4240756;27;20119;-63
2022/11/07 15:22:28;;;;;;;0.00;0.00;;;15.50;92.90;;;;;;4229093;27;20558;-64
2022/11/07 15:25:24;;;;;;;0.45;0.45;;;15.50;92.90;;;;;;4241486;27;20523;-63
2022/11/07 15:28:29;;;;;;;0.10;0.10;;;15.50;92.90;;;;;;4240792;27;20058;-63
2022/11/07 15:31:20;;;;;;;0.35;0.35;;;15.50;92.90;;;;;;4241782;27;20070;-63
2022/11/07 15:34:02;;;;;;;0.00;0.00;;;15.50;92.90;;;;;;4242004;27;20046;-63
2022/11/07 15:36:44;;;;;;;0.20;0.20;;;15.50;92.90;;;;;;4241691;27;20076;-64
2022/11/07 15:39:26;;;;;;;;;;;15.50;92.90;;;;;;4242621;28;20070;-63
2022/11/07 15:42:07;;;;;;;;;;;15.60;92.90;;;;;;4242467;28;19926;-63